createdAt,value
2024-05-09T00:00:56.500Z,102260.91
2024-05-09T00:03:26.418Z,102258.19
2024-05-09T00:05:56.290Z,102257.38
2024-05-09T00:08:26.138Z,102252.75
2024-05-09T00:10:58.804Z,102255.47
2024-05-09T00:13:28.612Z,102251.91
2024-05-09T00:15:58.404Z,102254.63
2024-05-09T00:18:28.304Z,102251.06
2024-05-09T00:20:58.105Z,102249.19
2024-05-09T00:23:27.904Z,102252.94
2024-05-09T00:26:00.720Z,102247.50
2024-05-09T00:28:30.536Z,102247.50
2024-05-09T00:31:00.319Z,102252.94
2024-05-09T00:33:30.185Z,102244.78
2024-05-09T00:36:00.376Z,102232.19
2024-05-09T00:38:30.199Z,102240.38
2024-05-09T00:41:02.719Z,102234.91
2024-05-09T00:43:32.762Z,102237.66
2024-05-09T00:46:02.656Z,102238.50
2024-05-09T00:48:32.636Z,102242.25
2024-05-09T00:51:02.487Z,102239.34
2024-05-09T00:53:32.364Z,102244.97
2024-05-09T00:56:05.541Z,102238.66
2024-05-09T00:58:35.288Z,102239.53
2024-05-09T01:01:05.593Z,102244.09
2024-05-09T01:03:35.572Z,102247.69
2024-05-09T01:06:05.806Z,102240.53
2024-05-09T01:08:35.620Z,102240.53
2024-05-09T01:11:08.176Z,102238.66
2024-05-09T01:13:37.993Z,102234.91
2024-05-09T01:16:08.540Z,102242.25
2024-05-09T01:18:38.372Z,102233.06
2024-05-09T01:21:10.204Z,102234.91
2024-05-09T01:23:42.701Z,102234.06
2024-05-09T01:29:05.768Z,102242.25
2024-05-09T01:36:44.838Z,102239.53
2024-05-09T01:39:17.292Z,102232.56
2024-05-09T01:41:47.035Z,102229.66
2024-05-09T01:44:17.127Z,102227.31
2024-05-09T01:51:56.386Z,102226.31
2024-05-09T01:54:29.024Z,102223.56
2024-05-09T01:56:58.732Z,102226.31
2024-05-09T01:59:28.810Z,102220.88
2024-05-09T02:01:59.963Z,102218.94
2024-05-09T02:04:30.688Z,102220.00
2024-05-09T02:07:00.535Z,102214.56
2024-05-09T02:09:32.963Z,102217.28
2024-05-09T02:12:02.846Z,102211.84
2024-05-09T02:14:32.979Z,102211.19
2024-05-09T02:17:03.973Z,102212.88
2024-05-09T02:22:08.396Z,102221.03
2024-05-09T02:24:41.061Z,102209.31
2024-05-09T02:27:10.802Z,102213.72
2024-05-09T02:29:40.571Z,102212.88
2024-05-09T02:32:10.720Z,102213.72
2024-05-09T02:34:41.604Z,102220.19
2024-05-09T02:37:11.369Z,102222.91
2024-05-09T02:39:41.153Z,102214.75
2024-05-09T02:42:10.903Z,102217.47
2024-05-09T02:44:38.354Z,102213.06
2024-05-09T02:47:08.254Z,102212.03
2024-05-09T02:49:35.552Z,102214.75
2024-05-09T02:54:37.558Z,102216.44
2024-05-09T02:57:09.991Z,102215.78
2024-05-09T02:59:37.150Z,102226.31
2024-05-09T03:02:07.775Z,102222.72
2024-05-09T03:04:35.454Z,102220.00
2024-05-09T03:07:05.327Z,102214.56
2024-05-09T03:09:32.781Z,102216.44
2024-05-09T03:12:02.685Z,102211.00
2024-05-09T03:14:32.906Z,102218.13
2024-05-09T03:17:02.722Z,102220.88
2024-05-09T03:22:04.507Z,102216.06
2024-05-09T03:27:06.970Z,102215.22
2024-05-09T03:29:37.121Z,102210.78
2024-05-09T03:32:07.505Z,102219.63
2024-05-09T03:34:34.628Z,102219.63
2024-05-09T03:39:39.260Z,102217.75
2024-05-09T03:42:08.983Z,102213.34
2024-05-09T03:44:41.459Z,102216.06
2024-05-09T03:49:43.511Z,102216.91
2024-05-09T03:52:10.607Z,102206.88
2024-05-09T03:54:47.634Z,102206.88
2024-05-09T03:57:17.116Z,102210.63
2024-05-09T03:59:49.772Z,102214.19
2024-05-09T04:02:17.858Z,102204.16
2024-05-09T04:04:47.704Z,102204.16
2024-05-09T04:07:14.844Z,102198.59
2024-05-09T04:09:44.863Z,102218.59
2024-05-09T04:12:12.029Z,102217.75
2024-05-09T04:14:43.057Z,102217.75
2024-05-09T04:19:47.491Z,102219.44
2024-05-09T04:22:14.659Z,102211.28
2024-05-09T04:24:44.373Z,102218.59
2024-05-09T04:27:11.519Z,102220.28
2024-05-09T04:29:42.244Z,102231.19
2024-05-09T04:32:09.448Z,102225.72
2024-05-09T04:34:42.566Z,102223.88
2024-05-09T04:37:09.680Z,102226.75
2024-05-09T04:39:39.388Z,102213.72
2024-05-09T04:42:06.547Z,102227.44
2024-05-09T04:44:37.575Z,102229.09
2024-05-09T04:47:05.150Z,102229.09
2024-05-09T04:49:35.148Z,102172.53
2024-05-09T04:52:05.676Z,102231.81
2024-05-09T04:54:36.646Z,102220.66
2024-05-09T04:57:04.285Z,102227.44
2024-05-09T04:59:34.079Z,102225.53
2024-05-09T05:02:01.252Z,102222.81
2024-05-09T05:04:31.963Z,102223.88
2024-05-09T05:07:02.079Z,102222.81
2024-05-09T05:09:35.150Z,102230.97
2024-05-09T05:12:05.618Z,102231.81
2024-05-09T05:17:02.768Z,102236.41
2024-05-09T05:19:32.790Z,102238.31
2024-05-09T05:22:00.058Z,102246.25
2024-05-09T05:24:30.110Z,102250.88
2024-05-09T05:26:59.878Z,102230.69
2024-05-09T05:29:29.668Z,102249.00
2024-05-09T05:31:56.953Z,102247.28
2024-05-09T05:34:27.097Z,102244.56
2024-05-09T05:36:54.169Z,102248.13
2024-05-09T05:39:23.871Z,102247.28
2024-05-09T05:41:50.975Z,102245.41
2024-05-09T05:46:56.511Z,102258.19
2024-05-09T05:49:26.364Z,102240.25
2024-05-09T05:51:53.830Z,102260.72
2024-05-09T05:54:23.595Z,102268.03
2024-05-09T05:56:50.804Z,102259.88
2024-05-09T05:59:24.141Z,102224.94
2024-05-09T06:01:52.654Z,102257.53
2024-05-09T06:04:22.445Z,102251.06
2024-05-09T06:11:52.240Z,102266.84
2024-05-09T06:14:24.636Z,102220.53
2024-05-09T06:16:52.567Z,102246.56
2024-05-09T06:19:23.353Z,102257.81
2024-05-09T06:21:50.573Z,102247.00
2024-05-09T06:26:52.616Z,102249.19
2024-05-09T06:29:25.031Z,102249.66
2024-05-09T06:31:52.319Z,102245.25
2024-05-09T06:34:23.023Z,102247.13
2024-05-09T06:36:50.286Z,102248.81
2024-05-09T06:39:20.000Z,102250.50
2024-05-09T06:41:47.384Z,102239.53
2024-05-09T06:44:17.126Z,102251.53
2024-05-09T06:46:47.026Z,102256.97
2024-05-09T06:49:17.187Z,102263.28
2024-05-09T06:51:44.652Z,102258.66
2024-05-09T06:54:15.076Z,102254.63
2024-05-09T06:56:42.295Z,102256.78
2024-05-09T06:59:12.105Z,102256.78
2024-05-09T07:04:18.095Z,102263.28
2024-05-09T07:11:48.562Z,102279.41
2024-05-09T07:19:22.631Z,102272.28
2024-05-09T07:21:51.404Z,102272.28
2024-05-09T07:24:21.123Z,102270.41
2024-05-09T07:26:48.301Z,102266.00
2024-05-09T07:29:18.205Z,102265.81
2024-05-09T07:31:45.430Z,102257.72
2024-05-09T07:34:16.729Z,102268.53
2024-05-09T07:36:47.022Z,102255.47
2024-05-09T07:39:16.770Z,102272.06
2024-05-09T07:41:43.946Z,102264.75
2024-05-09T07:44:15.070Z,102219.34
2024-05-09T07:50:56.036Z,102260.09
2024-05-09T07:57:06.553Z,102259.31
2024-05-09T07:59:38.038Z,102255.28
2024-05-09T08:02:05.873Z,102218.31
2024-05-09T08:04:36.388Z,102233.78
2024-05-09T08:07:06.315Z,102260.38
2024-05-09T08:12:04.854Z,102253.22
2024-05-09T08:14:35.072Z,102247.56
2024-05-09T08:17:02.631Z,102249.47
2024-05-09T08:19:32.499Z,102247.69
2024-05-09T08:21:59.714Z,102252.22
2024-05-09T08:24:32.207Z,102254.72
2024-05-09T08:26:59.333Z,102245.25
2024-05-09T08:29:29.789Z,102251.16
2024-05-09T08:31:59.086Z,102214.34
2024-05-09T08:34:29.068Z,102256.59
2024-05-09T08:36:57.524Z,102241.09
2024-05-09T08:39:27.777Z,102241.31
2024-05-09T08:41:57.573Z,102242.97
2024-05-09T08:44:27.293Z,102245.69
2024-05-09T08:46:54.447Z,102230.97
2024-05-09T08:49:24.362Z,102218.13
2024-05-09T08:51:51.875Z,102216.22
2024-05-09T08:54:22.786Z,102238.38
2024-05-09T08:59:30.461Z,102236.50
2024-05-09T09:01:57.697Z,102215.41
2024-05-09T09:04:27.582Z,102217.75
2024-05-09T09:06:57.249Z,102233.34
2024-05-09T09:12:01.141Z,102233.63
2024-05-09T09:14:33.611Z,102229.09
2024-05-09T09:17:00.708Z,102223.47
2024-05-09T09:19:30.656Z,102233.78
2024-05-09T09:21:57.942Z,102232.94
2024-05-09T09:24:27.738Z,102227.31
2024-05-09T09:26:56.022Z,102223.75
2024-05-09T09:29:26.104Z,102208.75
2024-05-09T09:32:00.957Z,102200.28
2024-05-09T09:41:36.555Z,102223.75
2024-05-09T09:44:06.725Z,102223.09
2024-05-09T09:46:34.246Z,102218.50
2024-05-09T09:49:06.836Z,102218.50
2024-05-09T10:01:47.883Z,102203.00
2024-05-09T10:04:20.448Z,102195.69
2024-05-09T10:06:50.032Z,102137.00
2024-05-09T10:11:54.648Z,102177.97
2024-05-09T10:14:33.523Z,102175.63
2024-05-09T10:17:04.914Z,102178.06
2024-05-09T10:19:37.359Z,102191.94
2024-05-09T10:22:05.986Z,102190.06
2024-05-09T10:24:49.776Z,102175.81
2024-05-09T10:27:17.023Z,102132.13
2024-05-09T10:29:56.691Z,102161.06
2024-05-09T10:32:23.950Z,102168.88
2024-05-09T10:37:36.029Z,102174.78
2024-05-09T10:40:11.966Z,102120.75
2024-05-09T10:42:44.407Z,102172.06
2024-05-09T10:45:14.233Z,102174.78
2024-05-09T10:47:42.317Z,102170.19
2024-05-09T10:52:48.163Z,102168.47
2024-05-09T10:57:50.135Z,102162.00
2024-05-09T11:08:01.706Z,102154.69
2024-05-09T11:10:34.155Z,102145.22
2024-05-09T11:13:01.904Z,102109.56
2024-05-09T11:15:40.871Z,102146.53
2024-05-09T11:20:40.704Z,102131.22
2024-05-09T11:23:08.182Z,102130.22
2024-05-09T11:25:37.928Z,102087.53
2024-05-09T11:30:36.097Z,102120.94
2024-05-09T11:33:03.329Z,102117.81
2024-05-09T11:35:36.204Z,102129.19
2024-05-09T11:38:06.013Z,102113.03
2024-05-09T11:40:36.156Z,102078.63
2024-05-09T11:43:03.375Z,102113.03
2024-05-09T11:50:40.550Z,102105.72
2024-05-09T11:53:10.354Z,102088.28
2024-05-09T11:55:40.069Z,102088.53
2024-05-09T11:58:08.385Z,102097.56
2024-05-09T12:00:38.590Z,102078.22
2024-05-09T12:03:06.274Z,102084.97
2024-05-09T12:05:36.414Z,102084.78
2024-05-09T12:08:03.913Z,102080.09
2024-05-09T12:10:37.039Z,102083.28
2024-05-09T12:13:06.484Z,102082.06
2024-05-09T12:15:39.043Z,102081.22
2024-05-09T12:18:06.962Z,102076.63
2024-05-09T12:20:39.681Z,102084.78
2024-05-09T12:23:08.257Z,102065.66
2024-05-09T12:25:42.068Z,102082.06
2024-05-09T12:28:09.416Z,102063.78
2024-05-09T12:30:41.558Z,102074.75
2024-05-09T12:33:10.023Z,102067.44
2024-05-09T12:35:40.441Z,102069.31
2024-05-09T12:38:07.592Z,102065.75
2024-05-09T12:40:39.097Z,102026.75
2024-05-09T12:43:10.543Z,102062.00
2024-05-09T12:45:41.194Z,102063.88
2024-05-09T12:48:12.039Z,102052.97
2024-05-09T12:50:43.050Z,102046.69
2024-05-09T12:53:10.309Z,102034.88
2024-05-09T13:03:16.740Z,102033.28
2024-05-09T13:05:46.974Z,102005.84
2024-05-09T13:08:14.068Z,102037.69
2024-05-09T13:10:44.400Z,102027.66
2024-05-09T13:13:14.374Z,102024.06
2024-05-09T13:15:45.499Z,102015.66
2024-05-09T13:18:12.730Z,102008.25
2024-05-09T13:23:14.822Z,102020.50
2024-05-09T13:25:44.547Z,102016.94
2024-05-09T13:28:14.557Z,102012.34
2024-05-09T13:30:44.706Z,101997.28
2024-05-09T13:33:13.258Z,102000.53
2024-05-09T13:35:47.825Z,102010.47
2024-05-09T13:38:17.736Z,101970.09
2024-05-09T13:40:48.445Z,101979.16
2024-05-09T13:43:18.826Z,101997.72
2024-05-09T13:45:48.707Z,101998.75
2024-05-09T13:48:16.017Z,102000.44
2024-05-09T13:53:18.161Z,101996.03
2024-05-09T13:58:17.813Z,101977.75
2024-05-09T14:00:49.678Z,101982.56
2024-05-09T14:08:20.105Z,101959.28
2024-05-09T14:13:20.327Z,101980.53
2024-05-09T14:15:51.439Z,101977.81
2024-05-09T14:18:18.746Z,101974.25
2024-05-09T14:23:20.509Z,101972.38
2024-05-09T14:25:53.071Z,101973.22
2024-05-09T14:28:23.046Z,101970.50
2024-05-09T14:30:53.484Z,101965.06
2024-05-09T14:33:25.558Z,101956.63
2024-05-09T14:35:55.598Z,101963.19
2024-05-09T14:38:23.233Z,101936.50
2024-05-09T14:40:53.452Z,101955.03
2024-05-09T14:43:23.367Z,101942.00
2024-05-09T14:45:53.499Z,101941.59
2024-05-09T14:48:21.249Z,101931.13
2024-05-09T14:50:51.438Z,101936.16
2024-05-09T14:53:18.548Z,101930.66
2024-05-09T14:58:24.531Z,101926.50
2024-05-09T15:00:54.640Z,101931.38
2024-05-09T15:03:22.554Z,101931.38
2024-05-09T15:05:53.097Z,101916.19
2024-05-09T15:10:55.361Z,101921.53
2024-05-09T15:15:56.194Z,101909.53
2024-05-09T15:18:23.485Z,101919.00
2024-05-09T15:20:53.496Z,101923.22
2024-05-09T15:23:20.646Z,101912.31
2024-05-09T15:25:50.390Z,101911.25
2024-05-09T15:30:55.164Z,101912.31
2024-05-09T15:33:22.419Z,101903.69
2024-05-09T15:35:53.697Z,101902.25
2024-05-09T15:38:20.963Z,101900.59
2024-05-09T15:40:50.859Z,101883.16
2024-05-09T15:43:18.231Z,101877.91
2024-05-09T15:45:48.107Z,101895.16
2024-05-09T15:48:18.387Z,101889.72
2024-05-09T15:50:48.558Z,101855.84
2024-05-09T15:53:15.793Z,101877.91
2024-05-09T16:00:44.758Z,101870.53
2024-05-09T16:03:14.524Z,101881.31
2024-05-09T16:05:48.299Z,101883.44
2024-05-09T16:10:50.865Z,101887.00
2024-05-09T16:15:54.164Z,101883.22
2024-05-09T16:18:21.685Z,101887.00
2024-05-09T16:23:31.547Z,101881.56
2024-05-09T16:26:01.325Z,101873.31
2024-05-09T16:28:28.843Z,101868.72
2024-05-09T16:30:59.475Z,101884.28
2024-05-09T16:33:26.700Z,101881.56
2024-05-09T16:35:59.145Z,101880.72
2024-05-09T16:38:26.591Z,101877.31
2024-05-09T16:40:56.367Z,101858.03
2024-05-09T16:43:24.340Z,101874.22
2024-05-09T16:45:54.233Z,101864.38
2024-05-09T16:48:21.384Z,101867.94
2024-05-09T16:50:51.831Z,101871.50
2024-05-09T16:53:21.820Z,101862.50
2024-05-09T16:55:51.752Z,101862.50
2024-05-09T16:58:19.266Z,101867.09
2024-05-09T17:00:49.550Z,101859.78
2024-05-09T17:03:17.391Z,101857.00
2024-05-09T17:05:48.002Z,101865.22
2024-05-09T17:10:53.751Z,101867.09
2024-05-09T17:21:06.467Z,101868.13
2024-05-09T17:23:34.927Z,101871.69
2024-05-09T17:26:07.901Z,101866.25
2024-05-09T17:31:07.342Z,101822.50
2024-05-09T17:33:34.561Z,101858.28
2024-05-09T17:36:04.338Z,101863.72
2024-05-09T17:38:31.752Z,101853.44
2024-05-09T17:41:01.524Z,101863.72
2024-05-09T17:43:31.451Z,101858.09
2024-05-09T17:46:01.362Z,101844.63
2024-05-09T17:48:28.935Z,101851.81
2024-05-09T17:50:58.765Z,101853.69
2024-05-09T17:53:25.877Z,101841.44
2024-05-09T17:55:56.483Z,101853.69
2024-05-09T18:00:56.052Z,101856.41
2024-05-09T18:03:23.683Z,101857.25
2024-05-09T18:08:20.662Z,101850.13
2024-05-09T18:10:52.108Z,101857.25
2024-05-09T18:13:20.740Z,101846.72
2024-05-09T18:15:50.685Z,101861.84
2024-05-09T18:18:20.543Z,101830.91
2024-05-09T18:20:52.733Z,101856.59
2024-05-09T18:23:19.911Z,101861.00
2024-05-09T18:25:54.521Z,101859.13
2024-05-09T18:28:21.875Z,101860.16
2024-05-09T18:30:52.020Z,101866.44
2024-05-09T18:33:21.993Z,101803.13
2024-05-09T18:35:51.857Z,101862.03
2024-05-09T18:38:19.339Z,101859.72
2024-05-09T18:40:49.888Z,101872.06
2024-05-09T18:43:17.574Z,101772.75
2024-05-09T18:50:52.050Z,101870.41
2024-05-09T18:53:19.325Z,101870.19
2024-05-09T18:55:49.079Z,101865.75
2024-05-09T18:58:17.526Z,101884.88
2024-05-09T19:00:50.355Z,101820.03
2024-05-09T19:03:18.674Z,101872.03
2024-05-09T19:05:51.409Z,101876.69
2024-05-09T19:08:18.534Z,101884.22
2024-05-09T19:10:50.046Z,101887.59
2024-05-09T19:13:17.374Z,101892.19
2024-05-09T19:15:47.226Z,101884.03
2024-05-09T19:18:15.116Z,101885.06
2024-05-09T19:20:45.747Z,101832.63
2024-05-09T19:23:15.952Z,101862.91
2024-05-09T19:25:45.702Z,101893.22
2024-05-09T19:30:43.236Z,101846.72
2024-05-09T19:33:12.012Z,101886.66
2024-05-09T19:35:43.067Z,101900.53
2024-05-09T19:38:10.420Z,101888.72
2024-05-09T19:40:42.934Z,101906.81
2024-05-09T19:43:11.169Z,101907.66
2024-05-09T19:45:41.150Z,101892.47
2024-05-09T19:48:08.861Z,101905.31
2024-05-09T19:50:43.197Z,101914.97
2024-05-09T19:53:12.166Z,101901.38
2024-05-09T19:55:44.734Z,101902.16
2024-05-09T19:58:12.842Z,101907.00
2024-05-09T20:00:44.546Z,101905.28
2024-05-09T20:03:12.872Z,101897.75
2024-05-09T20:08:10.135Z,101892.88
2024-05-09T20:10:40.370Z,101903.84
2024-05-09T20:13:10.277Z,101910.56
2024-05-09T20:20:41.600Z,101905.91
2024-05-09T20:23:11.083Z,101917.88
2024-05-09T20:25:41.852Z,101921.00
2024-05-09T20:28:11.844Z,101926.91
2024-05-09T20:30:41.709Z,101927.75
2024-05-09T20:33:09.810Z,101927.91
2024-05-09T20:35:40.126Z,101922.47
2024-05-09T20:38:07.335Z,101921.44
2024-05-09T20:40:39.220Z,101922.47
2024-05-09T20:43:07.898Z,101911.53
2024-05-09T20:45:40.966Z,101893.41
2024-05-09T20:48:09.201Z,101814.03
2024-05-09T20:50:41.873Z,101928.78
2024-05-09T20:53:10.187Z,101911.16
2024-05-09T20:55:40.023Z,101921.84
2024-05-09T20:58:07.222Z,101885.56
2024-05-09T21:00:41.027Z,101907.34
2024-05-09T21:03:15.234Z,101917.63
2024-05-09T21:05:46.780Z,101925.03
2024-05-09T21:08:14.369Z,101920.59
2024-05-09T21:10:44.667Z,101915.94
2024-05-09T21:13:11.917Z,101916.84
2024-05-09T21:15:41.715Z,101906.75
2024-05-09T21:18:09.061Z,101920.41
2024-05-09T21:20:41.588Z,101925.03
2024-05-09T21:23:08.687Z,101921.25
2024-05-09T21:25:38.412Z,101922.28
2024-05-09T21:28:06.414Z,101885.06
2024-05-09T21:30:41.716Z,101911.34
2024-05-09T21:33:12.183Z,101916.84
2024-05-09T21:35:46.209Z,101913.28
2024-05-09T21:38:14.693Z,101917.69
2024-05-09T21:40:45.581Z,101914.97
2024-05-09T21:43:12.960Z,101910.97
2024-05-09T21:45:42.978Z,101918.53
2024-05-09T21:48:12.012Z,101915.81
2024-05-09T21:50:42.606Z,101914.13
2024-05-09T21:53:13.379Z,101915.81
2024-05-09T21:58:16.044Z,101911.41
2024-05-09T22:00:46.678Z,101914.97
2024-05-09T22:03:14.161Z,101907.00
2024-05-09T22:05:45.137Z,101907.84
2024-05-09T22:08:15.315Z,101909.53
2024-05-09T22:10:45.473Z,101907.84
2024-05-09T22:13:12.630Z,101912.44
2024-05-09T22:15:42.708Z,101907.00
2024-05-09T22:20:46.783Z,101907.84
2024-05-09T22:23:16.767Z,101904.44
2024-05-09T22:25:46.513Z,101914.13
2024-05-09T22:28:15.604Z,101913.28
2024-05-09T22:30:47.397Z,101916.00
2024-05-09T22:33:15.158Z,101919.56
2024-05-09T22:35:45.375Z,101921.44
2024-05-09T22:38:12.538Z,101921.63
2024-05-09T22:40:48.591Z,101919.75
2024-05-09T22:43:19.377Z,101919.56
2024-05-09T22:45:49.692Z,101915.56
2024-05-09T22:48:17.125Z,101919.69
2024-05-09T22:50:47.378Z,101928.78
2024-05-09T22:53:14.594Z,101933.38
2024-05-09T22:55:47.049Z,101921.63
2024-05-09T22:58:14.219Z,101917.03
2024-05-09T23:00:44.437Z,101906.09
2024-05-09T23:03:11.797Z,101923.31
2024-05-09T23:05:41.530Z,101921.63
2024-05-09T23:08:08.781Z,101918.91
2024-05-09T23:10:38.920Z,101924.34
2024-05-09T23:13:08.910Z,101922.47
2024-05-09T23:15:39.379Z,101920.78
2024-05-09T23:18:07.118Z,101920.59
2024-05-09T23:20:39.520Z,101914.31
2024-05-09T23:23:07.501Z,101917.03
2024-05-09T23:25:37.409Z,101875.78
2024-05-09T23:28:05.522Z,101908.03
2024-05-09T23:30:40.746Z,101910.75
2024-05-09T23:33:10.028Z,101904.47
2024-05-09T23:35:40.049Z,101883.69
2024-05-09T23:38:07.192Z,101884.13
2024-05-09T23:43:09.332Z,101895.50
2024-05-09T23:45:42.424Z,101892.78
2024-05-09T23:48:10.011Z,101880.19
2024-05-09T23:50:40.944Z,101894.66
2024-05-09T23:53:09.643Z,101885.63
2024-05-09T23:55:40.223Z,101885.63
2024-05-09T23:58:07.517Z,101876.38
